アルハンゲリスク の空港の天気 - METARとTAF

Arhangel'Sk ( ULAA / ARH ) - ロシア アルハンゲリスク
飛行場実況気象(Metar)
観測時間12/10 08:00 MSK (12/10 05:00 UTC)
風向・風速南 3m/s
視程10km以上
天気現象弱い雪
全天を覆う雲 雲底高度 270m
気温-4℃
湿度86%
気圧1008hPa
METARULAA 100500Z 18003MPS 130V220 9999 -SN OVC009 M04/M06 Q1008 R08/920353 NOSIG RMK QFE755/1007
過去の天気等 Google飛行場航空写真 Wunderground天気予報

過去48時間のMETAR

飛行場予報(TAF)
発表時間: 12/10 05:00 MSK (12/10 02:00 UTC)
予報対象時間: 10日6時 MSK ~ 11日6時 MSK
風向・風速南南東 5m/s
視程6000m
全天の8割程度の雲 雲底高度 340m
10日6時 MSK ~ 10日9時 MSK に一時的に
風向・風速南東 4m/s 瞬間風速 10m/s
視程3100m
天気現象弱い氷霧雨 弱い雪
全天の8割程度の雲 雲底高度 150m
10日9時 MSK ~ 10日20時 MSK に一時的に
風向・風速南東 5m/s 瞬間風速 10m/s
視程3100m
天気現象弱い雪
全天の8割程度の雲 雲底高度 210m
10日20時 MSK から
風向・風速南東 4m/s
視程4000m
天気現象弱い雪
全天の8割程度の雲 雲底高度 180m
10日20時 MSK ~ 11日6時 MSK に一時的に
風向・風速南東 6m/s
視程2100m
天気現象弱い雪 もや
全天の8割程度の雲 雲底高度 90m
TAF ULAA 100200Z 1003/1103 16005MPS 6000 BKN011
TEMPO 1003/1006 14004G10MPS 3100 -FZDZ -SN BKN005
TEMPO 1006/1017 14005G10MPS 3100 -SN BKN007
FM101700 14004MPS 4000 -SN BKN006
TEMPO 1017/1103 14006MPS 2100 -SN BR BKN003